Time;durP1;ratioP1;P1;durP2;ratioP2;P2;SDS_P1;SDS_P2;PMS_P1;PMS_P2;Temp;Humidity;BMP_temperature;BMP_pressure;BME280_temperature;BME280_humidity;BME280_pressure;Samples;Min_cycle;Max_cycle;Signal;HPM_P1;HPM_P2
2023/09/02 00:02:09;;;;;;;;;;;22.90;57.20;;;;;;8497182;27;20002;-51
2023/09/02 00:06:10;;;;;;;;;;;22.90;57.30;;;;;;8496074;27;19915;-50
2023/09/02 00:10:10;;;;;;;;;;;22.90;57.30;;;;;;8497196;27;19915;-51
2023/09/02 00:14:11;;;;;;;;;;;22.90;57.30;;;;;;8477457;27;19922;-50
2023/09/02 00:18:12;;;;;;;;;;;23.00;57.30;;;;;;8496712;27;20002;-51
2023/09/02 00:22:12;;;;;;;;;;;22.90;57.20;;;;;;8495831;28;19922;-50
2023/09/02 00:26:13;;;;;;;;;;;22.90;57.20;;;;;;8496637;27;20007;-51
2023/09/02 00:30:13;;;;;;;;;;;22.90;57.20;;;;;;8496004;28;19919;-50
2023/09/02 00:34:14;;;;;;;;;;;22.90;57.20;;;;;;8496089;28;19919;-51
2023/09/02 00:38:15;;;;;;;;;;;22.90;57.30;;;;;;8496540;28;19908;-48
2023/09/02 00:42:17;;;;;;;;;;;22.90;57.20;;;;;;8495819;28;19918;-50
2023/09/02 00:46:17;;;;;;;;;;;22.90;57.20;;;;;;8496918;28;19911;-49
2023/09/02 00:50:18;;;;;;;;;;;22.90;57.20;;;;;;8495127;28;20006;-51
2023/09/02 00:54:18;;;;;;;;;;;22.90;57.10;;;;;;8501740;27;20280;-49
2023/09/02 00:58:19;;;;;;;;;;;22.90;57.20;;;;;;8502170;27;19912;-50
2023/09/02 01:02:20;;;;;;;;;;;22.90;57.20;;;;;;8502746;27;20360;-51
2023/09/02 01:06:21;;;;;;;;;;;22.90;57.20;;;;;;8502019;27;19908;-51
2023/09/02 01:10:22;;;;;;;;;;;22.90;57.30;;;;;;8502310;27;20340;-51
2023/09/02 01:14:23;;;;;;;;;;;22.90;57.20;;;;;;8501658;27;19922;-50
2023/09/02 01:18:23;;;;;;;;;;;22.90;57.20;;;;;;8502265;27;19923;-50
2023/09/02 01:22:43;;;;;;;;;;;22.90;57.20;;;;;;8501938;27;19921;-50
2023/09/02 01:26:50;;;;;;;;;;;22.90;57.10;;;;;;8501018;27;19911;-49
2023/09/02 01:30:53;;;;;;;;;;;22.90;57.20;;;;;;8501404;27;19920;-51
2023/09/02 01:34:54;;;;;;;;;;;22.90;57.20;;;;;;8501637;27;20249;-48
2023/09/02 01:38:56;;;;;;;;;;;22.90;57.20;;;;;;8501483;27;19911;-51
2023/09/02 01:42:59;;;;;;;;;;;22.90;57.20;;;;;;8501235;27;19962;-51
2023/09/02 01:47:01;;;;;;;;;;;22.90;57.20;;;;;;8500612;27;19964;-49
2023/09/02 01:51:02;;;;;;;;;;;22.90;57.10;;;;;;8501087;27;20364;-49
2023/09/02 01:55:03;;;;;;;;;;;22.90;57.10;;;;;;8500400;27;20380;-51
2023/09/02 01:59:04;;;;;;;;;;;22.90;57.20;;;;;;8482420;27;20280;-49
2023/09/02 02:03:08;;;;;;;;;;;22.90;57.80;;;;;;8499274;27;19970;-50
2023/09/02 02:07:11;;;;;;;;;;;22.90;57.30;;;;;;8500521;27;19914;-49
2023/09/02 02:11:13;;;;;;;;;;;22.90;57.20;;;;;;8499926;27;19912;-49
2023/09/02 02:15:13;;;;;;;;;;;22.90;57.20;;;;;;8500343;27;19907;-49
2023/09/02 02:19:14;;;;;;;;;;;22.90;57.10;;;;;;8499404;27;19916;-51
2023/09/02 02:23:15;;;;;;;;;;;22.90;57.10;;;;;;8499556;27;19918;-51
2023/09/02 02:27:15;;;;;;;;;;;22.90;57.10;;;;;;8500456;27;19907;-50
2023/09/02 02:31:16;;;;;;;;;;;22.90;57.10;;;;;;8498468;27;20300;-51
2023/09/02 02:35:21;;;;;;;;;;;22.90;57.10;;;;;;8499881;27;19919;-51
2023/09/02 02:39:21;;;;;;;;;;;22.90;57.10;;;;;;8498532;27;19916;-51
2023/09/02 02:43:28;;;;;;;;;;;22.90;57.10;;;;;;8499509;27;19912;-51
2023/09/02 02:47:28;;;;;;;;;;;22.90;57.00;;;;;;8514294;27;19907;-51
2023/09/02 02:51:29;;;;;;;;;;;22.90;57.10;;;;;;8499057;27;19915;-49
2023/09/02 02:55:30;;;;;;;;;;;22.90;57.10;;;;;;8499296;27;19923;-49
2023/09/02 02:59:30;;;;;;;;;;;22.90;57.00;;;;;;8498509;27;20289;-50
2023/09/02 03:03:31;;;;;;;;;;;22.90;57.10;;;;;;8480514;27;20010;-51
2023/09/02 03:07:32;;;;;;;;;;;22.90;57.10;;;;;;8497705;27;19908;-49
2023/09/02 03:11:33;;;;;;;;;;;22.80;57.10;;;;;;8498767;27;19961;-49
2023/09/02 03:15:33;;;;;;;;;;;22.90;57.10;;;;;;8496478;27;19947;-51
2023/09/02 03:19:34;;;;;;;;;;;22.90;57.10;;;;;;8498081;27;19926;-50
2023/09/02 03:23:35;;;;;;;;;;;22.90;57.10;;;;;;8497096;27;19912;-49
2023/09/02 03:27:36;;;;;;;;;;;22.90;57.10;;;;;;8498410;27;20022;-50
2023/09/02 03:31:39;;;;;;;;;;;22.90;57.10;;;;;;8496877;27;19920;-49
2023/09/02 03:35:40;;;;;;;;;;;22.90;57.00;;;;;;8497532;27;20262;-50
2023/09/02 03:39:41;;;;;;;;;;;22.90;57.10;;;;;;8497290;27;19911;-50
2023/09/02 03:43:41;;;;;;;;;;;22.90;56.90;;;;;;8497092;27;19957;-51
2023/09/02 03:47:42;;;;;;;;;;;22.90;56.90;;;;;;8497459;27;19918;-51
2023/09/02 03:51:42;;;;;;;;;;;22.90;56.90;;;;;;8496450;27;19923;-48
2023/09/02 03:55:43;;;;;;;;;;;22.90;56.90;;;;;;8497608;27;20002;-51
2023/09/02 03:59:43;;;;;;;;;;;22.90;56.90;;;;;;8495983;27;19911;-50
2023/09/02 04:03:44;;;;;;;;;;;22.90;56.90;;;;;;8497116;27;19912;-48
2023/09/02 04:07:44;;;;;;;;;;;22.90;57.10;;;;;;8496120;27;20288;-51
2023/09/02 04:11:45;;;;;;;;;;;22.90;57.10;;;;;;8496894;27;20018;-51
2023/09/02 04:15:45;;;;;;;;;;;22.90;57.00;;;;;;8496209;27;19912;-50
2023/09/02 04:19:46;;;;;;;;;;;22.90;57.00;;;;;;8496403;27;19975;-51
2023/09/02 04:23:46;;;;;;;;;;;22.80;57.00;;;;;;8496383;28;20397;-51
2023/09/02 04:27:47;;;;;;;;;;;22.80;56.90;;;;;;8500568;27;19915;-50
2023/09/02 04:31:48;;;;;;;;;;;22.90;57.00;;;;;;8503677;27;20283;-51
2023/09/02 04:35:48;;;;;;;;;;;22.90;57.00;;;;;;8502590;27;20019;-50
2023/09/02 04:39:49;;;;;;;;;;;22.90;56.80;;;;;;8503514;27;19912;-51
2023/09/02 04:43:49;;;;;;;;;;;22.90;56.90;;;;;;8502115;27;19919;-50
2023/09/02 04:47:50;;;;;;;;;;;22.90;56.90;;;;;;8503097;27;19911;-49
2023/09/02 04:51:50;;;;;;;;;;;22.80;56.70;;;;;;8502726;27;19915;-51
2023/09/02 04:55:51;;;;;;;;;;;22.80;56.70;;;;;;8503200;27;20353;-51
2023/09/02 04:59:52;;;;;;;;;;;22.90;56.70;;;;;;8501865;27;19930;-49
2023/09/02 05:03:52;;;;;;;;;;;22.90;56.20;;;;;;8503871;27;20322;-50
2023/09/02 05:07:53;;;;;;;;;;;22.90;56.80;;;;;;8502484;27;19919;-51
2023/09/02 05:11:53;;;;;;;;;;;22.90;56.80;;;;;;8502013;27;20272;-51
2023/09/02 05:15:54;;;;;;;;;;;22.90;56.80;;;;;;8502447;27;19990;-50
2023/09/02 05:19:54;;;;;;;;;;;22.90;56.60;;;;;;8501102;27;19930;-51
2023/09/02 05:23:55;;;;;;;;;;;22.80;56.70;;;;;;8502202;27;19915;-50
2023/09/02 05:27:55;;;;;;;;;;;22.90;56.70;;;;;;8501347;27;19911;-48
2023/09/02 05:31:56;;;;;;;;;;;22.80;56.40;;;;;;8501889;27;20288;-48
2023/09/02 05:35:56;;;;;;;;;;;22.80;56.60;;;;;;8500675;27;19911;-51
2023/09/02 05:39:57;;;;;;;;;;;22.80;56.70;;;;;;8500882;27;19968;-51
2023/09/02 05:43:57;;;;;;;;;;;22.80;56.70;;;;;;8500328;27;19961;-50
2023/09/02 05:48:00;;;;;;;;;;;22.80;56.90;;;;;;8501192;27;19998;-51
2023/09/02 05:52:02;;;;;;;;;;;22.80;56.70;;;;;;8500486;27;20460;-51
2023/09/02 05:56:03;;;;;;;;;;;22.90;56.70;;;;;;8500786;27;20391;-48
2023/09/02 06:00:03;;;;;;;;;;;22.80;56.60;;;;;;8501087;27;20371;-51
2023/09/02 06:04:04;;;;;;;;;;;22.90;56.60;;;;;;8499899;27;20373;-51
2023/09/02 06:08:05;;;;;;;;;;;22.90;56.60;;;;;;8500983;27;20357;-50
2023/09/02 06:12:05;;;;;;;;;;;22.90;56.70;;;;;;8499749;27;20425;-49
2023/09/02 06:16:06;;;;;;;;;;;22.90;56.70;;;;;;8500906;27;19911;-49
2023/09/02 06:20:07;;;;;;;;;;;22.90;56.80;;;;;;8499120;27;19923;-48
2023/09/02 06:24:07;;;;;;;;;;;22.90;56.70;;;;;;8501349;27;19919;-51
2023/09/02 06:28:08;;;;;;;;;;;22.90;56.80;;;;;;8532599;27;20368;-50
2023/09/02 06:32:08;;;;;;;;;;;22.80;56.60;;;;;;8533876;27;20023;-51
2023/09/02 06:36:10;;;;;;;;;;;22.90;57.30;;;;;;8534887;27;19911;-51
2023/09/02 06:40:11;;;;;;;;;;;22.90;56.80;;;;;;8533741;27;19957;-51
2023/09/02 06:44:11;;;;;;;;;;;22.80;56.80;;;;;;8533829;27;20379;-51
2023/09/02 06:48:12;;;;;;;;;;;22.80;56.70;;;;;;8532619;27;19918;-51
2023/09/02 06:52:12;;;;;;;;;;;22.90;56.60;;;;;;8533580;27;19915;-50
2023/09/02 06:56:13;;;;;;;;;;;22.80;56.60;;;;;;8516834;27;19919;-51
2023/09/02 07:00:34;;;;;;;;;;;22.90;56.70;;;;;;8498533;27;19912;-51
2023/09/02 07:04:34;;;;;;;;;;;22.80;56.40;;;;;;8510969;27;19961;-51
2023/09/02 07:08:35;;;;;;;;;;;22.80;56.40;;;;;;8498549;27;19912;-51
2023/09/02 07:12:35;;;;;;;;;;;22.90;56.70;;;;;;8498645;27;20368;-49
2023/09/02 07:16:36;;;;;;;;;;;22.80;56.70;;;;;;8497507;27;19911;-51
2023/09/02 07:20:37;;;;;;;;;;;22.80;56.70;;;;;;8498455;27;19926;-49
2023/09/02 07:24:37;;;;;;;;;;;22.90;56.80;;;;;;8497557;27;19958;-51
2023/09/02 07:28:40;;;;;;;;;;;22.80;56.70;;;;;;8497999;27;20014;-51
2023/09/02 07:32:40;;;;;;;;;;;22.80;56.80;;;;;;8497156;27;19919;-51
2023/09/02 07:37:07;;;;;;;;;;;22.80;56.70;;;;;;8497593;27;19921;-51
2023/09/02 07:41:08;;;;;;;;;;;22.80;56.70;;;;;;8495119;27;19907;-48
2023/09/02 07:45:09;;;;;;;;;;;22.90;56.60;;;;;;8496703;27;19908;-51
2023/09/02 07:49:10;;;;;;;;;;;22.80;57.10;;;;;;8497686;27;20002;-50
2023/09/02 07:53:10;;;;;;;;;;;22.80;56.60;;;;;;8496475;27;19919;-51
2023/09/02 07:57:11;;;;;;;;;;;22.80;56.60;;;;;;8497611;27;19968;-51
2023/09/02 08:01:12;;;;;;;;;;;22.80;57.20;;;;;;8495587;27;19943;-50
2023/09/02 08:05:12;;;;;;;;;;;22.80;56.20;;;;;;8497325;27;19919;-51
2023/09/02 08:09:13;;;;;;;;;;;22.80;56.40;;;;;;8495884;27;19911;-49
2023/09/02 08:13:14;;;;;;;;;;;22.80;56.70;;;;;;8497100;27;20302;-50
2023/09/02 08:17:15;;;;;;;;;;;22.80;56.70;;;;;;8497036;27;19914;-50
2023/09/02 08:21:16;;;;;;;;;;;22.80;56.70;;;;;;8496009;27;19916;-48
2023/09/02 08:25:17;;;;;;;;;;;22.80;56.70;;;;;;8496952;27;19912;-50
2023/09/02 08:29:17;;;;;;;;;;;22.80;56.60;;;;;;8495718;28;19908;-49
2023/09/02 08:33:18;;;;;;;;;;;22.90;56.60;;;;;;8496489;28;19919;-49
2023/09/02 08:37:18;;;;;;;;;;;22.80;56.50;;;;;;8495679;28;19912;-51
2023/09/02 08:41:24;;;;;;;;;;;22.80;56.60;;;;;;8496519;28;19907;-51
2023/09/02 08:45:25;;;;;;;;;;;22.80;56.50;;;;;;8495293;28;19908;-50
2023/09/02 08:49:26;;;;;;;;;;;22.80;56.60;;;;;;8496467;28;19994;-49
2023/09/02 08:53:28;;;;;;;;;;;22.90;56.60;;;;;;8495420;28;19922;-53
2023/09/02 08:57:28;;;;;;;;;;;22.90;56.60;;;;;;8495866;27;19994;-51
2023/09/02 09:02:00;;;;;;;;;;;22.80;56.50;;;;;;8495728;28;19908;-51
2023/09/02 09:06:02;;;;;;;;;;;22.80;56.60;;;;;;8495368;28;19956;-51
2023/09/02 09:10:03;;;;;;;;;;;22.80;56.50;;;;;;8495917;28;20277;-51
2023/09/02 09:14:05;;;;;;;;;;;22.80;57.10;;;;;;8497162;27;19911;-50
2023/09/02 09:18:07;;;;;;;;;;;22.80;56.60;;;;;;8503312;27;19918;-50
2023/09/02 09:22:07;;;;;;;;;;;22.80;56.60;;;;;;8501439;27;19922;-51
2023/09/02 09:26:09;;;;;;;;;;;22.80;56.60;;;;;;8501882;27;19954;-49
2023/09/02 09:30:27;;;;;;;;;;;22.90;56.30;;;;;;8502145;27;19907;-50
2023/09/02 09:34:34;;;;;;;;;;;22.80;56.60;;;;;;8500816;27;20274;-50
2023/09/02 09:38:38;;;;;;;;;;;22.80;56.50;;;;;;8501753;27;19907;-51
2023/09/02 09:42:39;;;;;;;;;;;22.80;56.50;;;;;;8500583;27;19916;-48
2023/09/02 09:46:42;;;;;;;;;;;22.80;56.50;;;;;;8501653;27;20056;-51
2023/09/02 09:50:43;;;;;;;;;;;22.80;56.50;;;;;;8500656;27;19915;-51
2023/09/02 09:54:47;;;;;;;;;;;22.90;56.60;;;;;;8501005;27;20014;-50
2023/09/02 09:58:48;;;;;;;;;;;22.80;56.50;;;;;;8501202;27;19907;-49
2023/09/02 10:02:49;;;;;;;;;;;22.90;56.50;;;;;;8481430;27;19911;-49
2023/09/02 10:06:50;;;;;;;;;;;22.90;56.50;;;;;;8500936;27;19911;-50
2023/09/02 10:10:50;;;;;;;;;;;22.90;56.60;;;;;;8499694;27;19958;-50
2023/09/02 10:14:51;;;;;;;;;;;22.80;56.60;;;;;;8500757;27;19922;-50
2023/09/02 10:18:51;;;;;;;;;;;22.90;56.60;;;;;;8499205;27;19919;-49
2023/09/02 10:22:53;;;;;;;;;;;22.90;56.60;;;;;;8499998;27;19951;-50
2023/09/02 10:26:56;;;;;;;;;;;22.80;56.50;;;;;;8499683;27;19908;-52
2023/09/02 10:30:59;;;;;;;;;;;22.80;56.50;;;;;;8499453;27;19908;-49
2023/09/02 10:35:09;;;;;;;;;;;22.80;56.60;;;;;;8499667;27;19964;-49
2023/09/02 10:39:12;;;;;;;;;;;22.90;56.50;;;;;;8498655;27;20377;-48
2023/09/02 10:43:13;;;;;;;;;;;22.90;56.50;;;;;;8499590;27;19908;-49
2023/09/02 10:47:14;;;;;;;;;;;22.90;56.40;;;;;;8498755;27;19951;-49
2023/09/02 10:51:15;;;;;;;;;;;22.90;56.40;;;;;;8499594;27;20015;-51
2023/09/02 10:55:15;;;;;;;;;;;22.90;56.40;;;;;;8498494;27;20367;-49
2023/09/02 10:59:27;;;;;;;;;;;22.90;56.30;;;;;;8499275;27;19946;-50
2023/09/02 11:03:44;;;;;;;;;;;22.90;56.30;;;;;;8498724;27;19911;-51
2023/09/02 11:07:45;;;;;;;;;;;22.90;56.50;;;;;;8479249;27;19908;-51
2023/09/02 11:12:06;;;;;;;;;;;22.90;57.00;;;;;;8498955;27;19911;-50
2023/09/02 11:16:16;;;;;;;;;;;22.90;57.00;;;;;;8497374;27;19912;-49
2023/09/02 11:20:25;;;;;;;;;;;22.90;56.40;;;;;;8497519;27;19915;-51
2023/09/02 11:24:27;;;;;;;;;;;22.90;56.40;;;;;;8498253;27;20310;-49
2023/09/02 11:28:30;;;;;;;;;;;22.90;56.40;;;;;;8496394;27;20368;-51
2023/09/02 11:32:41;;;;;;;;;;;22.90;56.30;;;;;;8498753;27;19922;-50
2023/09/02 11:36:43;;;;;;;;;;;22.90;56.30;;;;;;8496567;27;19919;-50
2023/09/02 11:40:43;;;;;;;;;;;22.90;56.30;;;;;;8498501;27;19914;-50
2023/09/02 11:44:50;;;;;;;;;;;22.90;56.40;;;;;;8497325;27;19916;-49
2023/09/02 11:48:51;;;;;;;;;;;22.90;56.40;;;;;;8497104;27;19911;-51
2023/09/02 11:52:52;;;;;;;;;;;22.90;56.40;;;;;;8497177;27;19927;-48
2023/09/02 11:57:00;;;;;;;;;;;22.90;56.40;;;;;;8496170;27;19966;-49
2023/09/02 12:01:01;;;;;;;;;;;22.90;56.40;;;;;;8478032;27;20384;-51
2023/09/02 12:05:03;;;;;;;;;;;22.90;56.40;;;;;;8495858;27;19934;-51
2023/09/02 12:09:34;;;;;;;;;;;22.90;56.50;;;;;;8497037;27;20399;-51
2023/09/02 12:13:35;;;;;;;;;;;22.90;56.40;;;;;;8496459;27;19959;-50
2023/09/02 12:17:36;;;;;;;;;;;22.90;56.50;;;;;;8496463;27;19915;-51
2023/09/02 12:21:36;;;;;;;;;;;22.90;56.30;;;;;;8496525;27;19926;-51
2023/09/02 12:25:38;;;;;;;;;;;22.90;56.40;;;;;;8495950;27;20320;-49
2023/09/02 12:29:39;;;;;;;;;;;22.90;56.30;;;;;;8497026;28;19914;-51
2023/09/02 12:33:39;;;;;;;;;;;22.90;56.30;;;;;;8495685;28;19958;-51
2023/09/02 12:37:40;;;;;;;;;;;22.90;56.20;;;;;;8496611;28;20332;-51
2023/09/02 12:41:41;;;;;;;;;;;22.90;56.30;;;;;;8495145;28;19911;-51
2023/09/02 12:45:44;;;;;;;;;;;22.90;56.40;;;;;;8496440;28;19915;-51
2023/09/02 12:49:45;;;;;;;;;;;22.90;56.30;;;;;;8501387;27;19907;-49
2023/09/02 12:53:45;;;;;;;;;;;22.90;56.30;;;;;;8503197;27;20559;-51
2023/09/02 12:57:46;;;;;;;;;;;22.90;56.30;;;;;;8485062;27;19955;-51
2023/09/02 13:01:46;;;;;;;;;;;22.90;56.20;;;;;;8501932;27;19907;-50
2023/09/02 13:05:47;;;;;;;;;;;23.00;56.30;;;;;;8502803;27;19912;-51
2023/09/02 13:09:48;;;;;;;;;;;22.90;56.30;;;;;;8501506;27;19911;-50
2023/09/02 13:13:48;;;;;;;;;;;22.90;56.40;;;;;;8502329;27;19922;-51
2023/09/02 13:17:49;;;;;;;;;;;22.90;56.20;;;;;;8501357;27;19912;-51
2023/09/02 13:21:50;;;;;;;;;;;23.00;56.20;;;;;;8502041;27;20395;-50
2023/09/02 13:25:50;;;;;;;;;;;23.00;56.10;;;;;;8501348;27;19919;-49
2023/09/02 13:29:51;;;;;;;;;;;23.00;56.20;;;;;;8502179;27;19922;-49
2023/09/02 13:33:51;;;;;;;;;;;22.90;56.20;;;;;;8501356;27;19920;-51
2023/09/02 13:37:54;;;;;;;;;;;23.00;56.10;;;;;;8501013;27;20396;-49
2023/09/02 13:41:54;;;;;;;;;;;23.00;56.00;;;;;;8501582;27;19907;-50
2023/09/02 13:45:55;;;;;;;;;;;23.00;56.00;;;;;;8500360;27;19916;-51
2023/09/02 13:49:55;;;;;;;;;;;23.00;56.00;;;;;;8501381;27;19975;-50
2023/09/02 13:53:56;;;;;;;;;;;23.00;56.00;;;;;;8499930;27;19916;-51
2023/09/02 13:57:56;;;;;;;;;;;23.00;56.00;;;;;;8501320;27;20296;-51
2023/09/02 14:02:01;;;;;;;;;;;23.00;56.00;;;;;;8499106;27;19911;-48
2023/09/02 14:06:03;;;;;;;;;;;23.00;56.00;;;;;;8483014;27;19918;-51
2023/09/02 14:10:04;;;;;;;;;;;23.00;56.20;;;;;;8499931;27;19939;-51
2023/09/02 14:14:05;;;;;;;;;;;23.00;56.00;;;;;;8501568;27;19912;-51
2023/09/02 14:18:06;;;;;;;;;;;23.00;56.00;;;;;;8499956;27;19911;-49
2023/09/02 14:22:06;;;;;;;;;;;23.00;56.10;;;;;;8499949;27;20470;-49
2023/09/02 14:26:07;;;;;;;;;;;23.00;56.00;;;;;;8501417;27;19993;-48
2023/09/02 14:30:08;;;;;;;;;;;23.00;56.10;;;;;;8499266;27;19912;-48
2023/09/02 14:34:08;;;;;;;;;;;23.00;56.00;;;;;;8500644;27;20359;-51
2023/09/02 14:38:09;;;;;;;;;;;23.00;56.00;;;;;;8499013;27;19912;-49
2023/09/02 14:42:09;;;;;;;;;;;23.00;56.00;;;;;;8500295;27;19911;-48
2023/09/02 14:46:10;;;;;;;;;;;23.00;56.00;;;;;;8498605;27;19911;-50
2023/09/02 14:50:10;;;;;;;;;;;23.00;56.00;;;;;;8481142;27;19998;-50
2023/09/02 14:54:12;;;;;;;;;;;23.00;56.00;;;;;;8498678;27;19954;-49
2023/09/02 14:58:14;;;;;;;;;;;23.00;56.00;;;;;;8498743;27;19911;-51
2023/09/02 15:02:19;;;;;;;;;;;23.00;56.00;;;;;;8498557;27;19911;-51
2023/09/02 15:06:19;;;;;;;;;;;23.00;56.20;;;;;;8497910;27;19908;-51
2023/09/02 15:10:26;;;;;;;;;;;23.00;56.20;;;;;;8497823;27;19912;-50
2023/09/02 15:14:27;;;;;;;;;;;23.00;56.20;;;;;;8497565;27;19918;-48
2023/09/02 15:18:29;;;;;;;;;;;23.00;56.20;;;;;;8480625;27;20376;-51
2023/09/02 15:22:31;;;;;;;;;;;23.00;56.10;;;;;;8497018;27;19927;-52
2023/09/02 15:26:32;;;;;;;;;;;23.00;56.10;;;;;;8498920;27;19954;-49
2023/09/02 15:30:33;;;;;;;;;;;23.00;56.10;;;;;;8478988;27;20372;-50
2023/09/02 15:34:36;;;;;;;;;;;23.00;56.20;;;;;;8497538;27;20252;-50
2023/09/02 15:38:38;;;;;;;;;;;23.00;56.10;;;;;;8497782;27;19907;-48
2023/09/02 15:42:39;;;;;;;;;;;23.00;56.10;;;;;;8496565;27;19939;-50
2023/09/02 15:46:40;;;;;;;;;;;23.00;56.10;;;;;;8498010;27;19908;-51
2023/09/02 15:50:40;;;;;;;;;;;23.00;56.00;;;;;;8496513;27;19954;-50
2023/09/02 15:54:41;;;;;;;;;;;23.00;56.00;;;;;;8497749;27;20410;-51
2023/09/02 15:58:42;;;;;;;;;;;23.00;56.00;;;;;;8496470;27;19916;-49
2023/09/02 16:02:43;;;;;;;;;;;23.00;56.10;;;;;;8497617;27;19915;-48
2023/09/02 16:06:43;;;;;;;;;;;23.00;56.10;;;;;;8495891;27;19911;-51
2023/09/02 16:10:44;;;;;;;;;;;23.00;56.20;;;;;;8497582;27;20003;-50
2023/09/02 16:14:44;;;;;;;;;;;23.00;56.20;;;;;;8496239;27;19919;-49
2023/09/02 16:18:48;;;;;;;;;;;23.00;56.10;;;;;;8478049;27;19922;-49
2023/09/02 16:22:48;;;;;;;;;;;23.00;56.10;;;;;;8496515;27;19920;-48
2023/09/02 16:26:49;;;;;;;;;;;23.00;56.20;;;;;;8495963;27;20029;-51
2023/09/02 16:30:49;;;;;;;;;;;23.00;56.10;;;;;;8496976;28;19911;-50
2023/09/02 16:34:51;;;;;;;;;;;23.00;56.10;;;;;;8495309;28;19922;-50
2023/09/02 16:38:52;;;;;;;;;;;23.00;56.20;;;;;;8496707;28;19911;-50
2023/09/02 16:42:52;;;;;;;;;;;23.00;56.00;;;;;;8495607;28;19973;-51
2023/09/02 16:46:54;;;;;;;;;;;23.00;56.20;;;;;;8496745;28;19912;-49
2023/09/02 16:50:54;;;;;;;;;;;23.00;56.20;;;;;;8495357;28;20364;-49
2023/09/02 16:54:55;;;;;;;;;;;23.00;56.20;;;;;;8496764;27;20288;-51
2023/09/02 16:58:55;;;;;;;;;;;23.00;56.20;;;;;;8495765;28;19915;-50
2023/09/02 17:02:56;;;;;;;;;;;23.00;56.70;;;;;;8495472;27;19915;-51
2023/09/02 17:06:57;;;;;;;;;;;23.00;56.20;;;;;;8496103;28;19907;-51
2023/09/02 17:10:59;;;;;;;;;;;23.00;56.80;;;;;;8494781;28;19926;-50
2023/09/02 17:14:59;;;;;;;;;;;23.00;56.20;;;;;;8495919;28;20384;-50
2023/09/02 17:19:00;;;;;;;;;;;23.00;56.20;;;;;;8494615;28;20439;-49
2023/09/02 17:23:21;;;;;;;;;;;23.00;56.20;;;;;;8496127;28;19923;-51
2023/09/02 17:27:22;;;;;;;;;;;23.00;56.20;;;;;;8477117;28;19911;-49
2023/09/02 17:31:22;;;;;;;;;;;23.00;56.10;;;;;;8495299;28;19911;-52
2023/09/02 17:35:23;;;;;;;;;;;23.00;56.10;;;;;;8498334;27;20038;-51
2023/09/02 17:39:23;;;;;;;;;;;23.00;56.20;;;;;;8501118;27;20276;-48
2023/09/02 17:43:24;;;;;;;;;;;23.00;56.20;;;;;;8501613;27;19918;-51
2023/09/02 17:47:24;;;;;;;;;;;23.00;56.20;;;;;;8501008;27;19911;-50
2023/09/02 17:51:25;;;;;;;;;;;23.00;56.20;;;;;;8501379;27;19918;-51
2023/09/02 17:55:25;;;;;;;;;;;23.00;56.20;;;;;;8500647;27;20357;-50
2023/09/02 17:59:26;;;;;;;;;;;23.00;56.20;;;;;;8501307;27;20002;-49
2023/09/02 18:03:27;;;;;;;;;;;23.00;56.20;;;;;;8499846;27;20379;-49
2023/09/02 18:07:27;;;;;;;;;;;23.00;56.30;;;;;;8501308;27;19912;-51
2023/09/02 18:11:28;;;;;;;;;;;23.00;56.30;;;;;;8500277;27;19923;-50
2023/09/02 18:15:32;;;;;;;;;;;23.00;56.30;;;;;;8500056;27;19911;-49
2023/09/02 18:19:33;;;;;;;;;;;23.00;56.30;;;;;;8500764;27;19923;-50
2023/09/02 18:23:34;;;;;;;;;;;23.00;56.30;;;;;;8499460;27;19918;-50
2023/09/02 18:27:35;;;;;;;;;;;23.00;56.40;;;;;;8500936;27;19952;-49
2023/09/02 18:31:36;;;;;;;;;;;23.00;56.40;;;;;;8498897;27;19915;-51
2023/09/02 18:35:37;;;;;;;;;;;23.00;56.40;;;;;;8500092;27;20042;-49
2023/09/02 18:39:37;;;;;;;;;;;23.00;56.50;;;;;;8498685;27;20402;-52
2023/09/02 18:43:38;;;;;;;;;;;23.00;56.50;;;;;;8499707;27;19976;-48
2023/09/02 18:47:38;;;;;;;;;;;23.00;56.50;;;;;;8498279;27;19912;-49
2023/09/02 18:51:39;;;;;;;;;;;23.00;56.60;;;;;;8499325;27;20307;-48
2023/09/02 18:55:40;;;;;;;;;;;23.00;56.60;;;;;;8499304;27;19915;-51
2023/09/02 18:59:40;;;;;;;;;;;23.00;56.60;;;;;;8499288;27;19918;-51
2023/09/02 19:03:42;;;;;;;;;;;22.90;56.60;;;;;;8499828;27;19908;-50
2023/09/02 19:07:42;;;;;;;;;;;23.00;56.70;;;;;;8497947;27;19915;-49
2023/09/02 19:11:43;;;;;;;;;;;23.00;56.70;;;;;;8499026;27;20007;-51
2023/09/02 19:15:43;;;;;;;;;;;22.90;56.70;;;;;;8497701;27;20006;-51
2023/09/02 19:19:44;;;;;;;;;;;23.00;56.70;;;;;;8498355;27;19957;-51
2023/09/02 19:23:45;;;;;;;;;;;23.00;56.70;;;;;;8497379;27;20425;-51
2023/09/02 19:27:46;;;;;;;;;;;23.00;56.70;;;;;;8498614;27;20417;-49
2023/09/02 19:31:46;;;;;;;;;;;23.00;56.80;;;;;;8497035;27;20124;-49
2023/09/02 19:35:47;;;;;;;;;;;23.00;56.80;;;;;;8498200;27;20660;-49
2023/09/02 19:39:47;;;;;;;;;;;23.00;56.80;;;;;;8497660;27;19911;-51
2023/09/02 19:43:48;;;;;;;;;;;23.00;56.80;;;;;;8497302;27;19923;-51
2023/09/02 19:47:49;;;;;;;;;;;23.00;56.80;;;;;;8497811;27;20365;-50
2023/09/02 19:51:50;;;;;;;;;;;23.00;56.80;;;;;;8496305;27;19923;-50
2023/09/02 19:55:53;;;;;;;;;;;23.00;56.80;;;;;;8497914;27;19950;-50
2023/09/02 19:59:53;;;;;;;;;;;23.00;56.90;;;;;;8495613;27;19922;-50
2023/09/02 20:03:55;;;;;;;;;;;23.00;56.90;;;;;;8497389;27;19911;-49
2023/09/02 20:07:56;;;;;;;;;;;23.00;56.90;;;;;;8496441;27;20326;-49
2023/09/02 20:11:57;;;;;;;;;;;23.00;56.90;;;;;;8497152;27;19937;-49
2023/09/02 20:15:58;;;;;;;;;;;23.00;56.90;;;;;;8477840;27;19912;-48
2023/09/02 20:19:58;;;;;;;;;;;23.00;56.90;;;;;;8496611;27;20376;-49
2023/09/02 20:23:59;;;;;;;;;;;23.00;57.00;;;;;;8496576;27;19911;-51
2023/09/02 20:27:59;;;;;;;;;;;23.00;57.00;;;;;;8496687;27;19908;-49
2023/09/02 20:32:00;;;;;;;;;;;23.00;57.00;;;;;;8497054;28;19941;-50
2023/09/02 20:36:02;;;;;;;;;;;23.00;57.00;;;;;;8495524;28;19911;-51
2023/09/02 20:40:03;;;;;;;;;;;23.00;57.00;;;;;;8496956;28;19961;-51
2023/09/02 20:44:03;;;;;;;;;;;22.90;57.00;;;;;;8495234;28;20375;-49
2023/09/02 20:48:05;;;;;;;;;;;23.00;57.10;;;;;;8496892;28;19919;-51
2023/09/02 20:52:06;;;;;;;;;;;22.90;57.00;;;;;;8495271;28;19912;-51
2023/09/02 20:56:10;;;;;;;;;;;22.90;57.00;;;;;;8496802;27;19926;-49
2023/09/02 21:00:11;;;;;;;;;;;23.00;57.10;;;;;;8495907;28;19941;-51
2023/09/02 21:04:11;;;;;;;;;;;22.90;57.00;;;;;;8495776;28;19911;-51
2023/09/02 21:08:12;;;;;;;;;;;23.00;57.10;;;;;;8497217;27;19915;-49
2023/09/02 21:12:14;;;;;;;;;;;23.00;57.10;;;;;;8501462;27;19962;-51
2023/09/02 21:16:20;;;;;;;;;;;23.00;57.10;;;;;;8503253;27;19923;-49
2023/09/02 21:20:20;;;;;;;;;;;23.00;57.10;;;;;;8501378;27;20433;-51
2023/09/02 21:24:21;;;;;;;;;;;23.00;57.10;;;;;;8502572;27;20292;-50
2023/09/02 21:28:23;;;;;;;;;;;23.00;57.10;;;;;;8501562;27;20011;-49
2023/09/02 21:32:24;;;;;;;;;;;22.90;57.10;;;;;;8518185;27;19950;-51
2023/09/02 21:36:25;;;;;;;;;;;23.00;57.20;;;;;;8517081;27;19912;-51
2023/09/02 21:40:25;;;;;;;;;;;23.00;57.10;;;;;;8517895;27;19929;-50
2023/09/02 21:44:26;;;;;;;;;;;23.00;57.20;;;;;;8500580;27;20373;-50
2023/09/02 21:48:26;;;;;;;;;;;23.00;57.20;;;;;;8500588;27;19912;-50
2023/09/02 21:52:27;;;;;;;;;;;23.00;57.20;;;;;;8482525;27;19941;-52
2023/09/02 21:56:27;;;;;;;;;;;23.00;57.20;;;;;;8518231;27;19911;-48
2023/09/02 22:00:28;;;;;;;;;;;23.00;57.70;;;;;;8536154;27;19912;-50
2023/09/02 22:04:29;;;;;;;;;;;22.90;57.20;;;;;;8515980;27;19986;-51
2023/09/02 22:08:30;;;;;;;;;;;22.90;57.20;;;;;;8535377;27;19911;-51
2023/09/02 22:12:30;;;;;;;;;;;23.00;57.30;;;;;;8534625;27;19922;-51
2023/09/02 22:16:31;;;;;;;;;;;23.00;57.30;;;;;;8535104;27;19918;-51
2023/09/02 22:20:32;;;;;;;;;;;23.00;57.30;;;;;;8533075;27;19923;-51
2023/09/02 22:24:32;;;;;;;;;;;23.00;57.30;;;;;;8533976;27;19911;-51
2023/09/02 22:28:34;;;;;;;;;;;23.00;57.20;;;;;;8500157;27;19911;-51
2023/09/02 22:32:35;;;;;;;;;;;23.00;57.30;;;;;;8500171;27;20280;-49
2023/09/02 22:36:35;;;;;;;;;;;23.00;57.30;;;;;;8500179;27;19977;-50
2023/09/02 22:40:36;;;;;;;;;;;23.00;57.30;;;;;;8498692;27;19912;-50
2023/09/02 22:44:36;;;;;;;;;;;23.00;57.30;;;;;;8500566;27;19937;-50
2023/09/02 22:48:37;;;;;;;;;;;23.00;57.30;;;;;;8498757;27;19912;-49
2023/09/02 22:52:37;;;;;;;;;;;22.90;57.30;;;;;;8499226;27;19925;-51
2023/09/02 22:56:38;;;;;;;;;;;22.90;57.20;;;;;;8498687;27;19912;-50
2023/09/02 23:00:39;;;;;;;;;;;23.00;57.30;;;;;;8464037;27;19927;-49
2023/09/02 23:04:39;;;;;;;;;;;23.00;57.30;;;;;;8498446;27;19918;-49
2023/09/02 23:08:43;;;;;;;;;;;23.00;57.30;;;;;;8498367;27;19911;-49
2023/09/02 23:12:44;;;;;;;;;;;22.90;57.30;;;;;;8498383;27;19967;-50
2023/09/02 23:16:48;;;;;;;;;;;23.00;57.30;;;;;;8498764;27;19942;-51
2023/09/02 23:20:50;;;;;;;;;;;22.90;57.30;;;;;;8498208;27;20023;-48
2023/09/02 23:24:53;;;;;;;;;;;22.90;57.30;;;;;;8497781;27;19915;-51